Terminal Aerodrome Forecast
Issued by NWS

Home | Current Version | Previous Version | Text Only | Print | Product List | Glossary On
Versions: 1 2 3 4 5 6 7 8 9 10 11 12 13 14 15 16 17 18 19 20 21 22 23 24 25 26 27 28 29 30 31 32 33 34 35 36 37
000
FTUS44 KHGX 290520
TAFUTS
TAF
KUTS 290520Z 2906/3006 VRB03KT P6SM FEW015
     FM290800 VRB03KT 5SM BR BKN015
      TEMPO 2908/2912 2SM BR OVC007
     FM291400 13004KT P6SM BKN015 BKN150
     FM291700 13005KT P6SM SCT025 BKN180
     FM292000 12005KT P6SM FEW050
     FM300100 14004KT P6SM BKN250=

USA.gov is the U.S. government's official web portal to all federal, state and local government web resources and services.